Alakanuk, AK (99554)

9:02 AM AKDT on August 25, 2016 (GMT -0800)
St. Marys | | Change Station

Elev 312 ft 62.06 °N, 163.30 °W | Updated 6 minutes ago

Overcast
Overcast
52 °F
Feels Like 52 °F
N
0
Wind Variable Wind from North

Today
High -- | Low -- °F
--% Chance of Precip.
Yesterday
High -- | Low -- °F
Precip. -- in
Pressure 30.23 in
Visibility 6.0 miles
Clouds Few 1500 ft
Overcast 3800 ft
Dew Point 51 °F
Humidity 97%
Rainfall 0.01 in
Snow Depth Not available.
7:28 AM 10:30 PM
Last Quarter, 44% visible
METAR PASM 251656Z AUTO 00000KT 6SM BR FEW015 OVC038 11/11 A3018 RMK AO2 SLP237 T01110106
Pressure 30.23 in
Visibility 6.0 miles
Clouds Few 1500 ft
Overcast 3800 ft
Dew Point 51 °F
Humidity 97%
Rainfall 0.01 in
Snow Depth Not available.
7:28 AM 10:30 PM
Last Quarter, 44% visible
METAR PASM 251656Z AUTO 00000KT 6SM BR FEW015 OVC038 11/11 A3018 RMK AO2 SLP237 T01110106

10-Day Weather Forecast

Almanac

Astronomy

Aug. 25, 2016 Rise Set
Actual Time
Civil Twilight
Nautical Twilight
Astronomical Twilight
Moon
Length of Visible Light
Length of Day
Tomorrow will be .
, % of the Moon is Illuminated

Today's Extremes

State Highs State Lows

Community

WunderPhotos

Upload Photos

1,934,874 photos uploaded!

WunderBlog® & News

Nearby

Air Quality

  Air Quality AQ Index Pollutant
Not available.

Snow Depth

Station Depth Elevation

Earthquake Activity

City Distance Mag. Time & Date
Minimum magnitude displayed is 2.5.

Coastal Water Temperatures

Place Temperature

Stations

Nearby Weather Stations

Station Location Temp. Windchill Dew Point Humidity Wind Precip. Elev Updated Type
                   

Watches & Warnings

There are currently no watches in effect.